createdAt,value
2023-05-01T00:00:39.607Z,4.80
2023-05-01T00:03:41.328Z,4.20
2023-05-01T00:06:42.981Z,4.40
2023-05-01T00:09:44.634Z,4.88
2023-05-01T00:12:46.183Z,3.95
2023-05-01T00:15:48.881Z,3.78
2023-05-01T00:18:50.538Z,4.32
2023-05-01T00:21:53.151Z,4.05
2023-05-01T00:24:54.745Z,3.97
2023-05-01T00:27:56.289Z,3.55
2023-05-01T00:30:57.926Z,3.83
2023-05-01T00:33:59.534Z,3.40
2023-05-01T00:37:02.352Z,3.25
2023-05-01T00:40:05.294Z,3.65
2023-05-01T00:43:06.960Z,4.32
2023-05-01T00:46:09.098Z,3.38
2023-05-01T00:49:10.920Z,3.67
2023-05-01T00:52:13.242Z,3.42
2023-05-01T00:55:14.850Z,3.22
2023-05-01T00:58:18.674Z,2.92
2023-05-01T01:01:21.517Z,3.25
2023-05-01T01:04:23.313Z,3.20
2023-05-01T01:07:36.923Z,2.83
2023-05-01T01:11:03.998Z,2.60
2023-05-01T01:14:10.774Z,2.72
2023-05-01T01:17:30.060Z,2.53
2023-05-01T01:20:43.175Z,2.78
2023-05-01T01:24:06.264Z,2.58
2023-05-01T01:27:25.972Z,2.45
2023-05-01T01:30:50.751Z,2.78
2023-05-01T01:34:01.991Z,2.78
2023-05-01T01:37:20.369Z,2.35
2023-05-01T01:40:35.195Z,2.53
2023-05-01T01:43:41.078Z,2.20
2023-05-01T01:46:43.185Z,3.25
2023-05-01T01:49:49.875Z,2.33
2023-05-01T01:52:54.238Z,2.78
2023-05-01T01:55:58.266Z,2.03
2023-05-01T01:59:01.908Z,2.75
2023-05-01T02:02:05.107Z,2.13
2023-05-01T02:05:14.771Z,2.50
2023-05-01T02:08:18.444Z,2.63
2023-05-01T02:11:22.235Z,2.38
2023-05-01T02:14:26.961Z,1.98
2023-05-01T02:17:30.041Z,2.05
2023-05-01T02:20:33.459Z,2.40
2023-05-01T02:23:35.653Z,1.55
2023-05-01T02:26:42.683Z,1.67
2023-05-01T02:32:46.441Z,1.55
2023-05-01T02:35:48.154Z,1.35
2023-05-01T02:38:51.166Z,1.63
2023-05-01T02:41:55.824Z,1.23
2023-05-01T02:45:00.147Z,0.82
2023-05-01T02:48:04.022Z,0.82
2023-05-01T02:51:07.197Z,0.98
2023-05-01T02:54:09.569Z,0.43
2023-05-01T02:57:12.386Z,1.05
2023-05-01T03:00:14.330Z,0.80
2023-05-01T03:03:16.627Z,0.95
2023-05-01T03:06:19.514Z,0.80
2023-05-01T03:09:22.150Z,0.85
2023-05-01T03:12:24.029Z,1.02
2023-05-01T03:15:25.609Z,0.45
2023-05-01T03:18:27.384Z,0.55
2023-05-01T03:21:29.050Z,0.47
2023-05-01T03:24:30.610Z,0.32
2023-05-01T03:27:32.164Z,0.32
2023-05-01T03:30:35.023Z,0.60
2023-05-01T03:33:37.056Z,0.30
2023-05-01T03:36:38.613Z,0.57
2023-05-01T03:39:40.381Z,0.40
2023-05-01T03:42:41.957Z,0.30
2023-05-01T03:45:44.892Z,0.75
2023-05-01T03:48:46.741Z,0.77
2023-05-01T03:51:48.648Z,0.10
2023-05-01T03:54:50.343Z,0.22
2023-05-01T03:57:52.685Z,0.52
2023-05-01T04:00:57.029Z,0.25
2023-05-01T04:03:58.788Z,0.32
2023-05-01T04:07:00.440Z,0.22
2023-05-01T04:10:02.505Z,0.65
2023-05-01T04:13:04.916Z,0.20
2023-05-01T04:16:07.074Z,0.32
2023-05-01T04:19:09.273Z,0.13
2023-05-01T04:22:10.911Z,0.30
2023-05-01T04:25:12.489Z,0.32
2023-05-01T04:28:14.048Z,0.13
2023-05-01T04:31:16.053Z,0.30
2023-05-01T04:34:17.872Z,0.17
2023-05-01T04:37:19.506Z,0.15
2023-05-01T04:40:21.109Z,0.17
2023-05-01T04:43:22.733Z,0.10
2023-05-01T04:46:24.367Z,0.13
2023-05-01T04:49:26.182Z,0.22
2023-05-01T04:52:27.759Z,0.13
2023-05-01T04:55:31.145Z,0.40
2023-05-01T04:58:32.870Z,0.40
2023-05-01T05:01:34.544Z,0.13
2023-05-01T05:04:36.655Z,0.47
2023-05-01T05:07:38.282Z,0.28
2023-05-01T05:10:39.889Z,0.47
2023-05-01T05:13:41.474Z,0.70
2023-05-01T05:16:43.254Z,0.22
2023-05-01T05:19:44.865Z,0.28
2023-05-01T05:22:46.381Z,0.20
2023-05-01T05:25:47.966Z,0.73
2023-05-01T05:28:50.908Z,0.30
2023-05-01T05:31:52.490Z,0.20
2023-05-01T05:34:54.126Z,0.20
2023-05-01T05:37:55.695Z,0.17
2023-05-01T05:40:59.444Z,0.22
2023-05-01T05:44:01.373Z,0.20
2023-05-01T05:47:02.997Z,0.22
2023-05-01T05:50:06.503Z,0.82
2023-05-01T05:53:09.129Z,0.10
2023-05-01T05:56:11.155Z,0.57
2023-05-01T05:59:12.809Z,0.20
2023-05-01T06:02:14.481Z,0.35
2023-05-01T06:05:16.220Z,0.22
2023-05-01T06:08:17.840Z,0.28
2023-05-01T06:11:21.567Z,0.10
2023-05-01T06:14:23.175Z,0.30
2023-05-01T06:17:25.473Z,0.28
2023-05-01T06:20:27.387Z,0.60
2023-05-01T06:23:29.461Z,0.45
2023-05-01T06:26:31.371Z,0.40
2023-05-01T06:29:32.946Z,0.65
2023-05-01T06:32:34.641Z,0.32
2023-05-01T06:35:39.196Z,0.00
2023-05-01T06:38:42.228Z,0.22
2023-05-01T06:41:46.516Z,0.40
2023-05-01T06:44:48.108Z,0.20
2023-05-01T06:47:49.709Z,0.20
2023-05-01T06:50:51.485Z,0.38
2023-05-01T06:53:53.174Z,0.10
2023-05-01T06:56:54.806Z,0.35
2023-05-01T06:59:56.707Z,0.63
2023-05-01T07:02:58.641Z,0.43
2023-05-01T07:06:00.333Z,0.35
2023-05-01T07:09:02.081Z,0.13
2023-05-01T07:12:03.878Z,0.25
2023-05-01T07:15:06.022Z,0.65
2023-05-01T07:18:07.721Z,0.22
2023-05-01T07:21:11.970Z,0.32
2023-05-01T07:24:13.652Z,0.30
2023-05-01T07:27:15.297Z,0.35
2023-05-01T07:30:16.965Z,0.22
2023-05-01T07:33:18.709Z,0.13
2023-05-01T07:36:22.201Z,0.70
2023-05-01T07:39:23.799Z,0.43
2023-05-01T07:42:29.614Z,0.40
2023-05-01T07:45:31.437Z,0.28
2023-05-01T07:48:33.054Z,0.43
2023-05-01T07:51:34.973Z,0.35
2023-05-01T07:54:36.824Z,0.57
2023-05-01T07:57:38.775Z,0.22
2023-05-01T08:00:40.512Z,0.52
2023-05-01T08:03:42.296Z,0.43
2023-05-01T08:06:43.924Z,0.10
2023-05-01T08:09:46.393Z,0.32
2023-05-01T08:12:47.963Z,0.40
2023-05-01T08:15:49.635Z,0.20
2023-05-01T08:18:51.280Z,0.15
2023-05-01T08:21:53.179Z,0.43
2023-05-01T08:24:55.427Z,0.40
2023-05-01T08:27:57.099Z,0.32
2023-05-01T08:30:58.687Z,0.32
2023-05-01T08:34:00.336Z,0.30
2023-05-01T08:37:02.165Z,0.20
2023-05-01T08:40:08.463Z,0.52
2023-05-01T08:43:10.605Z,0.10
2023-05-01T08:46:16.231Z,0.73
2023-05-01T08:49:18.687Z,0.28
2023-05-01T08:52:22.255Z,0.32
2023-05-01T08:55:25.797Z,0.20
2023-05-01T08:58:28.146Z,0.30
2023-05-01T09:01:32.757Z,0.40
2023-05-01T09:04:39.024Z,0.40
2023-05-01T09:07:41.201Z,0.32
2023-05-01T09:10:46.441Z,0.15
2023-05-01T09:13:48.282Z,0.43
2023-05-01T09:16:50.061Z,0.30
2023-05-01T09:19:52.462Z,0.43
2023-05-01T09:22:56.786Z,0.20
2023-05-01T09:25:59.630Z,0.70
2023-05-01T09:29:02.590Z,0.43
2023-05-01T09:32:20.874Z,0.30
2023-05-01T09:38:26.070Z,0.70
2023-05-01T09:41:28.527Z,0.52
2023-05-01T09:44:30.227Z,0.47
2023-05-01T09:47:34.102Z,0.20
2023-05-01T09:50:35.762Z,0.35
2023-05-01T09:53:38.941Z,0.73
2023-05-01T09:56:48.014Z,0.57
2023-05-01T10:00:08.411Z,0.43
2023-05-01T10:03:14.897Z,0.65
2023-05-01T10:06:29.078Z,0.32
2023-05-01T10:09:32.372Z,0.30
2023-05-01T10:12:33.977Z,0.50
2023-05-01T10:15:38.742Z,0.47
2023-05-01T10:18:40.336Z,0.63
2023-05-01T10:21:42.556Z,0.47
2023-05-01T10:24:46.239Z,0.55
2023-05-01T10:27:49.764Z,0.60
2023-05-01T10:30:52.723Z,0.70
2023-05-01T10:33:55.908Z,0.60
2023-05-01T10:37:01.074Z,0.65
2023-05-01T10:40:41.253Z,0.68
2023-05-01T10:43:43.749Z,0.40
2023-05-01T10:46:46.535Z,0.32
2023-05-01T10:50:04.509Z,0.47
2023-05-01T10:53:12.393Z,0.88
2023-05-01T10:56:27.166Z,0.80
2023-05-01T11:00:01.829Z,0.43
2023-05-01T11:03:21.643Z,0.52
2023-05-01T11:06:24.251Z,0.93
2023-05-01T11:09:46.232Z,0.73
2023-05-01T11:12:53.590Z,0.50
2023-05-01T11:15:55.468Z,0.43
2023-05-01T11:18:57.460Z,0.88
2023-05-01T11:22:00.606Z,0.55
2023-05-01T11:25:05.585Z,0.68
2023-05-01T11:28:07.228Z,0.63
2023-05-01T11:31:11.580Z,0.70
2023-05-01T11:34:13.444Z,0.60
2023-05-01T11:37:15.113Z,0.43
2023-05-01T11:40:20.210Z,0.60
2023-05-01T11:43:21.941Z,0.77
2023-05-01T11:46:33.802Z,0.90
2023-05-01T11:49:35.922Z,0.80
2023-05-01T11:52:45.600Z,0.85
2023-05-01T11:55:47.202Z,0.50
2023-05-01T11:58:49.100Z,0.32
2023-05-01T12:01:53.655Z,0.80
2023-05-01T12:04:55.673Z,0.85
2023-05-01T12:08:20.703Z,0.63
2023-05-01T12:11:24.057Z,0.75
2023-05-01T12:14:25.830Z,0.50
2023-05-01T12:17:28.483Z,0.70
2023-05-01T12:20:44.070Z,0.85
2023-05-01T12:23:46.264Z,0.70
2023-05-01T12:27:00.788Z,0.65
2023-05-01T12:30:02.430Z,0.30
2023-05-01T12:33:15.753Z,0.60
2023-05-01T12:36:18.016Z,0.40
2023-05-01T12:39:20.535Z,0.80
2023-05-01T12:42:22.152Z,0.52
2023-05-01T12:45:24.942Z,0.60
2023-05-01T12:48:27.379Z,0.43
2023-05-01T12:51:28.955Z,0.75
2023-05-01T12:54:32.402Z,0.55
2023-05-01T12:57:34.095Z,0.40
2023-05-01T13:00:46.454Z,1.00
2023-05-01T13:03:48.161Z,0.65
2023-05-01T13:06:52.631Z,0.82
2023-05-01T13:09:59.423Z,0.77
2023-05-01T13:13:01.955Z,0.47
2023-05-01T13:16:05.476Z,0.77
2023-05-01T13:19:07.606Z,0.75
2023-05-01T13:22:09.211Z,0.82
2023-05-01T13:25:20.421Z,0.65
2023-05-01T13:28:22.075Z,0.60
2023-05-01T13:31:23.730Z,0.52
2023-05-01T13:34:30.071Z,0.43
2023-05-01T13:40:34.359Z,0.55
2023-05-01T13:43:36.054Z,0.52
2023-05-01T13:46:42.164Z,0.47
2023-05-01T13:49:44.351Z,0.63
2023-05-01T13:52:46.338Z,0.68
2023-05-01T13:55:48.010Z,0.43
2023-05-01T13:58:50.731Z,0.60
2023-05-01T14:01:52.533Z,0.63
2023-05-01T14:04:55.039Z,0.52
2023-05-01T14:07:58.457Z,1.02
2023-05-01T14:11:00.195Z,0.70
2023-05-01T14:14:01.881Z,0.57
2023-05-01T14:17:03.627Z,0.55
2023-05-01T14:20:06.742Z,0.80
2023-05-01T14:23:08.624Z,0.52
2023-05-01T14:26:11.922Z,0.50
2023-05-01T14:29:23.035Z,0.50
2023-05-01T14:32:24.970Z,0.52
2023-05-01T14:35:26.618Z,0.65
2023-05-01T14:38:35.312Z,0.50
2023-05-01T14:41:41.153Z,0.57
2023-05-01T14:44:43.057Z,0.30
2023-05-01T14:47:49.174Z,0.47
2023-05-01T14:50:51.601Z,0.50
2023-05-01T14:53:53.378Z,0.20
2023-05-01T14:56:54.955Z,0.35
2023-05-01T14:59:56.537Z,0.20
2023-05-01T15:02:59.308Z,0.43
2023-05-01T15:06:01.515Z,0.50
2023-05-01T15:09:04.812Z,1.40
2023-05-01T15:12:07.330Z,0.63
2023-05-01T15:15:09.624Z,0.50
2023-05-01T15:18:11.500Z,0.63
2023-05-01T15:21:13.175Z,0.45
2023-05-01T15:24:14.699Z,0.30
2023-05-01T15:27:17.767Z,0.40
2023-05-01T15:30:19.365Z,0.30
2023-05-01T15:33:21.221Z,0.50
2023-05-01T15:36:22.897Z,0.73
2023-05-01T15:39:24.543Z,0.57
2023-05-01T15:42:26.280Z,0.40
2023-05-01T15:45:27.946Z,0.40
2023-05-01T15:48:29.532Z,0.73
2023-05-01T15:51:32.520Z,0.30
2023-05-01T15:54:34.174Z,0.52
2023-05-01T15:57:35.823Z,0.40
2023-05-01T16:00:39.767Z,0.60
2023-05-01T16:03:45.447Z,0.20
2023-05-01T16:06:47.197Z,0.30
2023-05-01T16:09:49.209Z,0.40
2023-05-01T16:12:52.630Z,0.30
2023-05-01T16:15:54.306Z,0.25
2023-05-01T16:18:58.180Z,0.40
2023-05-01T16:22:03.804Z,0.45
2023-05-01T16:25:06.394Z,0.30
2023-05-01T16:28:08.074Z,0.22
2023-05-01T16:31:23.351Z,0.90
2023-05-01T16:34:28.051Z,0.40
2023-05-01T16:37:29.658Z,0.30
2023-05-01T16:40:31.389Z,0.40
2023-05-01T16:43:32.954Z,0.10
2023-05-01T16:46:34.627Z,0.32
2023-05-01T16:49:38.278Z,0.28
2023-05-01T16:52:40.495Z,0.43
2023-05-01T16:55:42.197Z,0.20
2023-05-01T16:58:43.942Z,0.22
2023-05-01T17:01:46.069Z,0.38
2023-05-01T17:04:47.728Z,0.35
2023-05-01T17:07:49.373Z,0.10
2023-05-01T17:10:50.967Z,0.63
2023-05-01T17:13:52.656Z,0.40
2023-05-01T17:16:54.387Z,0.35
2023-05-01T17:19:56.208Z,0.32
2023-05-01T17:22:57.904Z,0.47
2023-05-01T17:25:59.598Z,0.63
2023-05-01T17:29:03.171Z,0.28
2023-05-01T17:32:06.498Z,0.32
2023-05-01T17:35:08.660Z,0.20
2023-05-01T17:38:10.256Z,0.35
2023-05-01T17:41:11.864Z,0.40
2023-05-01T17:44:13.409Z,0.20
2023-05-01T17:47:15.310Z,0.38
2023-05-01T17:50:16.864Z,0.22
2023-05-01T17:53:18.542Z,0.40
2023-05-01T17:56:20.094Z,0.50
2023-05-01T17:59:21.840Z,0.47
2023-05-01T18:02:23.866Z,0.45
2023-05-01T18:05:25.980Z,0.32
2023-05-01T18:08:27.604Z,0.52
2023-05-01T18:11:29.178Z,0.70
2023-05-01T18:14:30.755Z,0.08
2023-05-01T18:17:32.410Z,0.47
2023-05-01T18:20:34.022Z,0.38
2023-05-01T18:23:36.562Z,0.20
2023-05-01T18:26:38.192Z,0.25
2023-05-01T18:29:39.768Z,0.40
2023-05-01T18:32:48.355Z,0.40
2023-05-01T18:35:50.567Z,0.30
2023-05-01T18:38:52.358Z,0.43
2023-05-01T18:41:54.509Z,3.05
2023-05-01T18:44:57.013Z,0.55
2023-05-01T18:48:00.612Z,0.73
2023-05-01T18:51:08.830Z,0.90
2023-05-01T18:54:11.086Z,0.60
2023-05-01T18:57:12.668Z,0.50
2023-05-01T19:00:16.634Z,1.00
2023-05-01T19:03:19.591Z,0.77
2023-05-01T19:06:21.226Z,0.65
2023-05-01T19:09:22.863Z,0.75
2023-05-01T19:12:24.450Z,0.50
2023-05-01T19:15:30.185Z,0.93
2023-05-01T19:18:33.269Z,0.98
2023-05-01T19:21:34.843Z,1.05
2023-05-01T19:24:36.473Z,0.63
2023-05-01T19:27:38.109Z,1.35
2023-05-01T19:30:41.268Z,0.60
2023-05-01T19:33:42.871Z,0.60
2023-05-01T19:36:44.469Z,0.82
2023-05-01T19:39:46.135Z,0.38
2023-05-01T19:42:47.748Z,1.00
2023-05-01T19:45:49.482Z,0.98
2023-05-01T19:48:51.538Z,0.63
2023-05-01T19:51:54.215Z,0.63
2023-05-01T19:54:55.809Z,0.77
2023-05-01T19:57:57.391Z,0.73
2023-05-01T20:01:02.319Z,0.82
2023-05-01T20:04:04.215Z,0.63
2023-05-01T20:07:06.343Z,0.75
2023-05-01T20:10:09.670Z,0.73
2023-05-01T20:13:11.488Z,1.10
2023-05-01T20:16:13.077Z,1.35
2023-05-01T20:19:16.437Z,0.73
2023-05-01T20:22:18.088Z,1.67
2023-05-01T20:25:19.702Z,1.13
2023-05-01T20:28:21.289Z,0.50
2023-05-01T20:31:22.895Z,0.90
2023-05-01T20:34:25.180Z,0.75
2023-05-01T20:37:26.787Z,1.65
2023-05-01T20:40:29.314Z,0.90
2023-05-01T20:43:30.892Z,0.90
2023-05-01T20:46:32.692Z,1.13
2023-05-01T20:49:34.774Z,0.93
2023-05-01T20:52:37.322Z,0.80
2023-05-01T20:55:38.882Z,1.13
2023-05-01T20:58:40.492Z,1.10
2023-05-01T21:01:42.150Z,0.93
2023-05-01T21:04:43.951Z,1.15
2023-05-01T21:07:45.593Z,0.93
2023-05-01T21:10:47.156Z,1.40
2023-05-01T21:13:48.813Z,0.80
2023-05-01T21:16:50.608Z,1.15
2023-05-01T21:19:52.462Z,1.20
2023-05-01T21:22:54.066Z,1.38
2023-05-01T21:25:55.728Z,0.95
2023-05-01T21:28:58.348Z,0.88
2023-05-01T21:32:05.977Z,0.98
2023-05-01T21:35:10.047Z,1.00
2023-05-01T21:38:11.782Z,1.08
2023-05-01T21:41:15.581Z,1.10
2023-05-01T21:44:17.628Z,0.77
2023-05-01T21:47:19.304Z,0.73
2023-05-01T21:50:21.514Z,1.65
2023-05-01T21:53:23.195Z,1.25
2023-05-01T21:56:24.962Z,1.05
2023-05-01T21:59:37.725Z,0.85
2023-05-01T22:02:44.335Z,0.93
2023-05-01T22:05:46.329Z,1.23
2023-05-01T22:08:47.895Z,1.08
2023-05-01T22:11:49.742Z,0.93
2023-05-01T22:14:51.540Z,0.93
2023-05-01T22:17:53.509Z,1.33
2023-05-01T22:20:55.376Z,1.08
2023-05-01T22:23:57.030Z,1.17
2023-05-01T22:26:58.658Z,1.40
2023-05-01T22:30:00.544Z,1.00
2023-05-01T22:33:02.411Z,1.20
2023-05-01T22:36:06.751Z,1.48
2023-05-01T22:39:09.089Z,1.25
2023-05-01T22:42:10.689Z,1.33
2023-05-01T22:45:12.696Z,1.40
2023-05-01T22:48:14.345Z,1.15
2023-05-01T22:51:16.122Z,1.17
2023-05-01T22:54:17.706Z,1.17
2023-05-01T22:57:19.282Z,1.23
2023-05-01T23:00:22.230Z,1.45
2023-05-01T23:03:24.016Z,1.00
2023-05-01T23:06:25.911Z,1.23
2023-05-01T23:09:30.568Z,0.95
2023-05-01T23:12:33.133Z,1.23
2023-05-01T23:15:34.701Z,1.10
2023-05-01T23:18:39.632Z,1.10
2023-05-01T23:21:41.194Z,0.90
2023-05-01T23:24:49.803Z,1.13
2023-05-01T23:27:54.084Z,1.20
2023-05-01T23:30:56.537Z,1.10
2023-05-01T23:34:04.307Z,1.23
2023-05-01T23:37:06.888Z,1.23
2023-05-01T23:40:09.563Z,1.27
2023-05-01T23:43:12.230Z,1.73
2023-05-01T23:46:14.467Z,1.65
2023-05-01T23:49:16.115Z,1.27
2023-05-01T23:52:17.708Z,1.45
2023-05-01T23:55:19.274Z,1.17
2023-05-01T23:58:20.816Z,0.65
